createdAt,value
2017-10-13T00:02:16.484Z,12.60
2017-10-13T00:04:44.815Z,12.70
2017-10-13T00:07:12.357Z,12.70
2017-10-13T00:09:39.895Z,12.70
2017-10-13T00:12:07.484Z,12.70
2017-10-13T00:14:35.028Z,12.70
2017-10-13T00:17:02.564Z,12.70
2017-10-13T00:19:30.132Z,12.60
2017-10-13T00:21:57.670Z,12.50
2017-10-13T00:24:25.980Z,12.40
2017-10-13T00:26:53.535Z,12.30
2017-10-13T00:29:21.079Z,12.30
2017-10-13T00:31:48.622Z,12.20
2017-10-13T00:34:16.623Z,12.10
2017-10-13T00:36:44.159Z,12.10
2017-10-13T00:39:11.696Z,12.00
2017-10-13T00:41:39.283Z,12.00
2017-10-13T00:44:07.584Z,11.90
2017-10-13T00:46:35.128Z,11.90
2017-10-13T00:49:02.687Z,11.80
2017-10-13T00:51:30.228Z,11.80
2017-10-13T00:53:58.531Z,11.70
2017-10-13T00:56:26.639Z,11.70
2017-10-13T00:58:54.659Z,11.70
2017-10-13T01:01:22.216Z,11.80
2017-10-13T01:03:50.552Z,11.70
2017-10-13T01:06:18.089Z,11.70
2017-10-13T01:08:45.623Z,11.70
2017-10-13T01:11:15.391Z,11.50
2017-10-13T01:13:42.928Z,11.50
2017-10-13T01:16:10.463Z,11.50
2017-10-13T01:18:38.056Z,11.40
2017-10-13T01:21:05.584Z,11.40
2017-10-13T01:23:33.124Z,11.40
2017-10-13T01:26:00.696Z,11.40
2017-10-13T01:28:28.239Z,11.40
2017-10-13T01:30:56.543Z,11.20
2017-10-13T01:33:24.117Z,11.20
2017-10-13T01:35:51.643Z,11.20
2017-10-13T01:38:19.183Z,11.10
2017-10-13T01:40:46.766Z,11.10
2017-10-13T01:43:19.523Z,11.10
2017-10-13T01:51:47.084Z,11.10
2017-10-13T01:54:16.434Z,10.70
2017-10-13T01:56:43.976Z,10.70
2017-10-13T01:59:12.080Z,10.70
2017-10-13T02:01:40.388Z,10.70
2017-10-13T02:04:07.920Z,10.70
2017-10-13T02:06:36.252Z,10.80
2017-10-13T02:09:03.788Z,10.80
2017-10-13T02:11:31.327Z,10.70
2017-10-13T02:13:58.892Z,10.70
2017-10-13T02:16:26.431Z,10.80
2017-10-13T02:18:54.727Z,10.70
2017-10-13T02:21:22.336Z,10.70
2017-10-13T02:23:49.871Z,10.70
2017-10-13T02:26:17.411Z,10.60
2017-10-13T02:28:44.975Z,10.60
2017-10-13T02:31:14.202Z,10.50
2017-10-13T02:33:41.734Z,10.50
2017-10-13T02:36:09.300Z,10.60
2017-10-13T02:38:36.835Z,10.60
2017-10-13T02:41:04.393Z,10.50
2017-10-13T02:43:32.756Z,10.50
2017-10-13T02:46:01.063Z,10.50
2017-10-13T02:48:28.603Z,10.50
2017-10-13T02:50:56.932Z,10.40
2017-10-13T02:53:24.532Z,10.40
2017-10-13T02:55:52.067Z,10.40
2017-10-13T02:58:19.624Z,10.40
2017-10-13T03:00:47.302Z,10.40
2017-10-13T03:03:17.273Z,10.40
2017-10-13T03:05:44.905Z,10.30
2017-10-13T03:08:12.445Z,10.30
2017-10-13T03:10:39.983Z,10.20
2017-10-13T03:13:07.559Z,10.20
2017-10-13T03:15:35.099Z,10.20
2017-10-13T03:18:02.639Z,10.20
2017-10-13T03:20:30.964Z,10.20
2017-10-13T03:22:58.508Z,10.20
2017-10-13T03:25:26.048Z,10.20
2017-10-13T03:27:53.647Z,10.20
2017-10-13T03:30:21.192Z,10.20
2017-10-13T03:32:48.735Z,10.10
2017-10-13T03:35:17.255Z,10.10
2017-10-13T03:37:45.550Z,10.10
2017-10-13T03:40:14.610Z,10.10
2017-10-13T03:42:42.167Z,10.10
2017-10-13T03:45:09.699Z,10.10
2017-10-13T03:47:37.240Z,10.10
2017-10-13T03:50:04.824Z,10.10
2017-10-13T03:52:32.371Z,10.10
2017-10-13T03:54:59.911Z,10.10
2017-10-13T03:57:27.480Z,10.10
2017-10-13T03:59:55.775Z,10.20
2017-10-13T04:02:23.903Z,10.20
2017-10-13T04:04:51.463Z,10.20
2017-10-13T04:07:19.767Z,10.20
2017-10-13T04:09:48.069Z,10.20
2017-10-13T04:12:16.863Z,10.20
2017-10-13T04:14:44.407Z,10.20
2017-10-13T04:17:11.956Z,10.20
2017-10-13T04:19:39.515Z,10.10
2017-10-13T04:22:07.819Z,10.10
2017-10-13T04:24:35.352Z,10.10
2017-10-13T04:27:02.919Z,10.10
2017-10-13T04:29:30.695Z,10.00
2017-10-13T04:31:58.264Z,10.10
2017-10-13T04:34:25.927Z,10.00
2017-10-13T04:36:53.487Z,10.00
2017-10-13T04:39:21.020Z,10.00
2017-10-13T04:41:48.664Z,10.00
2017-10-13T04:44:16.411Z,10.00
2017-10-13T04:46:43.955Z,10.10
2017-10-13T04:49:11.519Z,10.10
2017-10-13T04:51:39.055Z,10.10
2017-10-13T04:54:06.595Z,10.20
2017-10-13T04:56:34.179Z,10.10
2017-10-13T04:59:01.719Z,10.20
2017-10-13T05:01:29.256Z,10.20
2017-10-13T05:03:57.126Z,10.20
2017-10-13T05:06:24.663Z,10.20
2017-10-13T05:08:52.970Z,10.20
2017-10-13T05:11:20.532Z,10.20
2017-10-13T05:13:48.075Z,10.20
2017-10-13T05:16:16.503Z,10.20
2017-10-13T05:18:44.734Z,10.20
2017-10-13T05:21:12.268Z,10.20
2017-10-13T05:23:39.812Z,10.30
2017-10-13T05:26:07.375Z,10.30
2017-10-13T05:28:34.913Z,10.40
2017-10-13T05:31:02.460Z,10.40
2017-10-13T05:33:30.033Z,10.40
2017-10-13T05:35:57.575Z,10.40
2017-10-13T05:38:25.111Z,10.40
2017-10-13T05:40:52.700Z,10.50
2017-10-13T05:43:20.243Z,10.50
2017-10-13T05:45:47.783Z,10.50
2017-10-13T05:48:16.327Z,10.50
2017-10-13T05:50:43.865Z,10.50
2017-10-13T05:53:11.398Z,10.50
2017-10-13T05:55:38.979Z,10.50
2017-10-13T05:58:06.511Z,10.50
2017-10-13T06:00:34.059Z,10.70
2017-10-13T06:03:01.672Z,10.70
2017-10-13T06:05:29.640Z,10.80
2017-10-13T06:07:57.171Z,10.90
2017-10-13T06:10:24.731Z,10.90
2017-10-13T06:12:52.273Z,11.00
2017-10-13T06:15:19.810Z,11.10
2017-10-13T06:17:47.396Z,11.10
2017-10-13T06:20:17.232Z,11.30
2017-10-13T06:22:44.762Z,11.30
2017-10-13T06:25:14.042Z,11.50
2017-10-13T06:27:42.348Z,11.60
2017-10-13T06:30:09.880Z,11.60
2017-10-13T06:32:38.211Z,11.90
2017-10-13T06:35:05.753Z,11.90
2017-10-13T06:37:33.292Z,12.20
2017-10-13T06:40:01.630Z,12.60
2017-10-13T06:42:29.162Z,12.60
2017-10-13T06:44:56.709Z,12.80
2017-10-13T06:47:24.295Z,12.90
2017-10-13T06:49:51.835Z,13.10
2017-10-13T06:52:19.374Z,13.20
2017-10-13T06:54:46.940Z,13.40
2017-10-13T06:57:25.718Z,13.40
2017-10-13T07:04:30.703Z,13.00
2017-10-13T07:06:59.500Z,12.80
2017-10-13T07:09:27.809Z,12.70
2017-10-13T07:11:55.375Z,12.70
2017-10-13T07:14:23.673Z,12.70
2017-10-13T07:16:51.263Z,12.70
2017-10-13T07:19:18.876Z,12.80
2017-10-13T07:21:46.406Z,13.00
2017-10-13T07:24:15.479Z,13.00
2017-10-13T07:26:43.855Z,13.50
2017-10-13T07:29:11.392Z,13.40
2017-10-13T07:31:38.924Z,14.10
2017-10-13T07:34:06.478Z,15.50
2017-10-13T07:36:35.152Z,18.60
2017-10-13T07:39:02.691Z,18.50
2017-10-13T07:41:31.014Z,20.80
2017-10-13T07:43:58.543Z,20.80
2017-10-13T07:46:26.076Z,22.30
2017-10-13T07:48:54.501Z,22.50
2017-10-13T07:51:22.365Z,22.80
2017-10-13T07:53:49.913Z,23.70
2017-10-13T07:56:17.472Z,23.40
2017-10-13T07:58:45.007Z,23.30
2017-10-13T08:01:12.544Z,23.00
2017-10-13T08:03:40.126Z,23.10
2017-10-13T08:06:07.655Z,23.30
2017-10-13T08:08:35.448Z,23.60
2017-10-13T08:11:03.044Z,23.20
2017-10-13T08:13:30.692Z,23.90
2017-10-13T08:15:58.304Z,24.50
2017-10-13T08:18:25.869Z,24.50
2017-10-13T08:20:53.448Z,24.80
2017-10-13T08:23:21.019Z,25.30
2017-10-13T08:25:48.649Z,25.40
2017-10-13T08:28:16.531Z,25.70
2017-10-13T08:30:44.195Z,26.60
2017-10-13T08:33:11.927Z,27.10
2017-10-13T08:35:39.497Z,27.80
2017-10-13T08:38:07.039Z,27.30
2017-10-13T08:40:34.759Z,27.80
2017-10-13T08:43:03.051Z,27.20
2017-10-13T08:45:30.579Z,27.20
2017-10-13T08:47:58.135Z,27.10
2017-10-13T08:50:25.777Z,26.80
2017-10-13T08:52:53.336Z,27.50
2017-10-13T08:55:20.927Z,27.00
2017-10-13T08:57:49.233Z,26.60
2017-10-13T09:00:16.876Z,26.60
2017-10-13T09:02:44.434Z,26.40
2017-10-13T09:05:14.391Z,27.00
2017-10-13T09:07:41.923Z,27.00
2017-10-13T09:10:09.733Z,26.90
2017-10-13T09:12:37.268Z,27.10
2017-10-13T09:15:04.787Z,27.80
2017-10-13T09:17:32.380Z,28.30
2017-10-13T09:19:59.906Z,28.20
2017-10-13T09:22:33.024Z,28.40
2017-10-13T09:25:00.552Z,28.00
2017-10-13T09:27:28.855Z,27.10
2017-10-13T09:29:56.399Z,27.10
2017-10-13T09:32:24.694Z,27.50
2017-10-13T09:34:52.239Z,27.40
2017-10-13T09:37:20.587Z,28.40
2017-10-13T09:39:48.130Z,28.40
2017-10-13T09:42:16.411Z,29.20
2017-10-13T09:44:43.972Z,27.90
2017-10-13T09:47:11.499Z,27.80
2017-10-13T09:49:39.023Z,27.90
2017-10-13T09:52:06.583Z,28.70
2017-10-13T09:54:34.883Z,27.20
2017-10-13T09:57:02.414Z,27.20
2017-10-13T09:59:30.008Z,26.60
2017-10-13T10:01:57.535Z,26.40
2017-10-13T10:04:25.059Z,25.40
2017-10-13T10:06:52.611Z,24.60
2017-10-13T10:09:20.139Z,24.10
2017-10-13T10:11:48.064Z,23.70
2017-10-13T10:14:16.469Z,23.10
2017-10-13T10:16:44.763Z,21.50
2017-10-13T10:19:12.295Z,21.50
2017-10-13T10:21:39.884Z,21.40
2017-10-13T10:24:07.421Z,21.10
2017-10-13T10:26:34.946Z,20.80
2017-10-13T10:29:02.507Z,20.50
2017-10-13T10:31:30.054Z,20.30
2017-10-13T10:33:57.587Z,20.30
2017-10-13T10:36:25.135Z,20.10
2017-10-13T10:38:53.427Z,19.50
2017-10-13T10:41:20.955Z,19.40
2017-10-13T10:43:49.381Z,19.70
2017-10-13T10:46:16.907Z,19.70
2017-10-13T10:48:44.443Z,19.90
2017-10-13T10:51:11.996Z,20.00
2017-10-13T10:53:39.528Z,19.80
2017-10-13T10:56:07.063Z,19.80
2017-10-13T10:58:34.623Z,19.70
2017-10-13T11:01:02.152Z,19.60
2017-10-13T11:03:30.469Z,19.80
2017-10-13T11:05:58.064Z,19.80
2017-10-13T11:08:25.596Z,20.00
2017-10-13T11:10:53.126Z,20.10
2017-10-13T11:13:20.827Z,20.20
2017-10-13T11:15:48.356Z,20.50
2017-10-13T11:18:16.379Z,20.40
2017-10-13T11:20:43.936Z,20.60
2017-10-13T11:23:11.461Z,20.40
2017-10-13T11:25:38.988Z,20.50
2017-10-13T11:28:06.572Z,20.60
2017-10-13T11:30:34.099Z,20.70
2017-10-13T11:33:02.440Z,21.00
2017-10-13T11:35:30.061Z,21.00
2017-10-13T11:37:57.638Z,21.10
2017-10-13T11:40:25.183Z,21.10
2017-10-13T11:42:52.756Z,21.20
2017-10-13T11:45:20.295Z,21.10
2017-10-13T11:47:47.860Z,21.10
2017-10-13T11:50:16.585Z,20.90
2017-10-13T11:52:44.135Z,20.60
2017-10-13T11:55:11.680Z,20.40
2017-10-13T11:57:39.296Z,20.50
2017-10-13T12:00:06.898Z,20.50
2017-10-13T12:02:34.457Z,20.50
2017-10-13T12:05:02.030Z,20.60
2017-10-13T12:07:29.590Z,20.60
2017-10-13T12:09:57.193Z,20.70
2017-10-13T12:12:24.785Z,20.60
2017-10-13T12:14:52.556Z,20.50
2017-10-13T12:17:20.113Z,20.40
2017-10-13T12:19:48.462Z,20.40
2017-10-13T12:22:16.428Z,20.40
2017-10-13T12:24:43.995Z,20.30
2017-10-13T12:27:11.579Z,20.30
2017-10-13T12:29:39.148Z,20.30
2017-10-13T12:32:06.699Z,20.40
2017-10-13T12:34:35.067Z,20.30
2017-10-13T12:37:03.371Z,20.00
2017-10-13T12:39:31.004Z,20.00
2017-10-13T12:41:58.583Z,19.80
2017-10-13T12:44:26.124Z,19.70
2017-10-13T12:46:54.431Z,19.50
2017-10-13T12:49:21.997Z,19.40
2017-10-13T12:51:49.561Z,19.50
2017-10-13T12:54:17.112Z,19.50
2017-10-13T12:56:44.752Z,19.40
2017-10-13T12:59:12.297Z,19.50
2017-10-13T13:01:39.856Z,19.50
2017-10-13T13:04:08.215Z,19.50
2017-10-13T13:06:35.771Z,19.50
2017-10-13T13:09:04.029Z,19.60
2017-10-13T13:11:31.602Z,19.50
2017-10-13T13:13:59.145Z,19.60
2017-10-13T13:16:27.127Z,19.60
2017-10-13T13:18:55.000Z,19.60
2017-10-13T13:21:22.548Z,19.50
2017-10-13T13:23:50.075Z,19.40
2017-10-13T13:26:17.894Z,19.40
2017-10-13T13:28:45.460Z,19.30
2017-10-13T13:31:15.333Z,19.30
2017-10-13T13:33:42.895Z,19.30
2017-10-13T13:36:11.267Z,19.20
2017-10-13T13:38:39.574Z,19.30
2017-10-13T13:41:07.143Z,19.40
2017-10-13T13:43:34.683Z,19.50
2017-10-13T13:46:02.226Z,19.50
2017-10-13T13:48:29.800Z,19.50
2017-10-13T13:50:59.992Z,19.50
2017-10-13T13:53:27.529Z,19.60
2017-10-13T13:55:55.865Z,19.70
2017-10-13T13:58:23.416Z,19.70
2017-10-13T14:00:51.017Z,19.70
2017-10-13T14:03:18.651Z,19.70
2017-10-13T14:05:46.250Z,19.70
2017-10-13T14:08:15.536Z,19.60
2017-10-13T14:10:43.114Z,19.60
2017-10-13T14:13:11.433Z,19.60
2017-10-13T14:15:39.736Z,19.60
2017-10-13T14:18:07.469Z,19.50
2017-10-13T14:20:34.996Z,19.50
2017-10-13T14:23:02.853Z,19.60
2017-10-13T14:25:33.101Z,19.50
2017-10-13T14:28:00.651Z,19.50
2017-10-13T14:30:28.330Z,19.40
2017-10-13T14:32:55.901Z,19.40
2017-10-13T14:35:23.486Z,19.40
2017-10-13T14:37:51.020Z,19.40
2017-10-13T14:40:18.594Z,19.40
2017-10-13T14:42:46.119Z,19.30
2017-10-13T14:45:24.960Z,19.30
2017-10-13T14:48:23.346Z,19.40
2017-10-13T14:50:50.960Z,19.30
2017-10-13T14:53:18.483Z,19.20
2017-10-13T14:55:46.032Z,19.10
2017-10-13T14:58:15.535Z,19.00
2017-10-13T15:00:43.059Z,19.00
2017-10-13T15:03:10.591Z,18.90
2017-10-13T15:05:38.180Z,18.90
2017-10-13T15:08:06.479Z,18.70
2017-10-13T15:10:34.007Z,18.60
2017-10-13T15:13:02.331Z,18.50
2017-10-13T15:15:29.854Z,18.50
2017-10-13T15:17:58.147Z,18.40
2017-10-13T15:20:25.839Z,18.30
2017-10-13T15:22:53.371Z,18.30
2017-10-13T15:25:26.683Z,18.30
2017-10-13T15:27:59.804Z,18.20
2017-10-13T15:30:33.056Z,18.10
2017-10-13T15:33:06.275Z,18.10
2017-10-13T15:35:39.393Z,18.00
2017-10-13T15:38:12.480Z,17.90
2017-10-13T15:40:45.720Z,17.80
2017-10-13T15:43:31.608Z,17.60
2017-10-13T15:49:19.535Z,17.40
2017-10-13T15:51:53.446Z,17.30
2017-10-13T15:54:21.243Z,17.30
2017-10-13T15:56:49.735Z,17.10
2017-10-13T15:59:17.400Z,17.00
2017-10-13T16:01:46.056Z,17.00
2017-10-13T16:04:24.823Z,16.90
2017-10-13T16:08:16.686Z,16.90
2017-10-13T16:10:44.290Z,16.80
2017-10-13T16:13:12.005Z,16.80
2017-10-13T16:15:39.855Z,16.70
2017-10-13T16:18:07.472Z,16.60
2017-10-13T16:20:35.623Z,16.50
2017-10-13T16:23:04.159Z,16.40
2017-10-13T16:25:31.772Z,16.40
2017-10-13T16:28:00.096Z,16.20
2017-10-13T16:30:27.660Z,16.20
2017-10-13T16:32:55.188Z,16.20
2017-10-13T16:35:23.556Z,16.10
2017-10-13T16:37:51.895Z,15.90
2017-10-13T16:40:19.424Z,15.90
2017-10-13T16:42:46.959Z,15.90
2017-10-13T16:45:27.000Z,15.80
2017-10-13T16:54:10.319Z,15.30
2017-10-13T16:56:37.848Z,15.30
2017-10-13T16:59:05.381Z,15.20
2017-10-13T17:01:33.732Z,15.10
2017-10-13T17:04:01.261Z,15.10
2017-10-13T17:06:29.559Z,15.00
2017-10-13T17:08:57.115Z,15.00
2017-10-13T17:11:24.828Z,15.00
2017-10-13T17:13:52.383Z,14.90
2017-10-13T17:16:20.289Z,14.80
2017-10-13T17:18:50.682Z,14.60
2017-10-13T17:21:18.715Z,14.60
2017-10-13T17:23:46.336Z,14.50
2017-10-13T17:26:25.236Z,14.40
2017-10-13T17:33:46.238Z,14.40
2017-10-13T17:36:16.308Z,14.20
2017-10-13T17:38:43.862Z,14.20
2017-10-13T17:41:12.211Z,14.20
2017-10-13T17:43:39.899Z,14.20
2017-10-13T17:46:07.597Z,14.20
2017-10-13T17:48:35.271Z,14.20
2017-10-13T17:51:02.864Z,14.00
2017-10-13T17:53:30.439Z,14.00
2017-10-13T17:55:58.781Z,14.00
2017-10-13T17:58:26.438Z,14.00
2017-10-13T18:00:54.792Z,13.90
2017-10-13T18:03:22.485Z,13.90
2017-10-13T18:05:50.083Z,13.90
2017-10-13T18:08:17.690Z,13.80
2017-10-13T18:10:50.092Z,13.70
2017-10-13T18:13:20.190Z,13.60
2017-10-13T18:15:47.783Z,13.60
2017-10-13T18:18:16.668Z,13.60
2017-10-13T18:20:44.205Z,13.50
2017-10-13T18:23:14.368Z,13.50
2017-10-13T18:25:42.749Z,13.30
2017-10-13T18:28:11.168Z,13.30
2017-10-13T18:30:38.713Z,13.20
2017-10-13T18:33:06.317Z,13.20
2017-10-13T18:35:33.856Z,13.10
2017-10-13T18:38:01.520Z,13.10
2017-10-13T18:40:29.280Z,13.10
2017-10-13T18:42:56.873Z,13.10
2017-10-13T18:45:24.428Z,13.00
2017-10-13T18:47:52.046Z,13.00
2017-10-13T18:50:19.581Z,12.90
2017-10-13T18:52:47.119Z,12.90
2017-10-13T18:55:16.410Z,12.80
2017-10-13T18:57:43.956Z,12.80
2017-10-13T19:00:11.489Z,12.70
2017-10-13T19:02:39.092Z,12.70
2017-10-13T19:05:06.639Z,12.70
2017-10-13T19:07:34.175Z,12.70
2017-10-13T19:10:01.778Z,12.60
2017-10-13T19:12:29.320Z,12.60
2017-10-13T19:14:56.855Z,12.50
2017-10-13T19:17:24.527Z,12.50
2017-10-13T19:19:52.066Z,12.40
2017-10-13T19:22:19.608Z,12.40
2017-10-13T19:24:47.316Z,12.30
2017-10-13T19:27:16.744Z,12.30
2017-10-13T19:29:44.288Z,12.20
2017-10-13T19:32:11.885Z,12.20
2017-10-13T19:34:39.436Z,12.20
2017-10-13T19:37:06.980Z,12.20
2017-10-13T19:39:34.539Z,12.10
2017-10-13T19:42:02.071Z,12.10
2017-10-13T19:44:29.603Z,12.00
2017-10-13T19:46:57.241Z,12.00
2017-10-13T19:49:24.783Z,12.00
2017-10-13T19:51:52.323Z,11.90
2017-10-13T19:54:19.926Z,11.90
2017-10-13T19:56:47.467Z,11.90
2017-10-13T19:59:17.233Z,11.80
2017-10-13T20:01:44.801Z,11.80
2017-10-13T20:04:12.335Z,11.80
2017-10-13T20:06:39.879Z,11.70
2017-10-13T20:09:07.502Z,11.70
2017-10-13T20:11:35.077Z,11.70
2017-10-13T20:14:02.612Z,11.70
2017-10-13T20:16:30.273Z,11.60
2017-10-13T20:18:57.812Z,11.60
2017-10-13T20:21:25.361Z,11.50
2017-10-13T20:23:52.929Z,11.50
2017-10-13T20:26:21.378Z,11.50
2017-10-13T20:28:49.721Z,11.40
2017-10-13T20:31:17.324Z,11.40
2017-10-13T20:33:45.774Z,11.40
2017-10-13T20:36:24.459Z,11.40
2017-10-13T20:42:10.300Z,11.30
2017-10-13T20:44:37.843Z,11.20
2017-10-13T20:47:05.372Z,11.20
2017-10-13T20:49:32.961Z,11.20
2017-10-13T20:52:00.542Z,11.10
2017-10-13T20:54:28.075Z,11.10
2017-10-13T20:56:55.655Z,11.10
2017-10-13T20:59:23.191Z,11.20
2017-10-13T21:01:50.730Z,11.10
2017-10-13T21:04:18.485Z,11.10
2017-10-13T21:06:46.031Z,11.10
2017-10-13T21:09:15.360Z,11.00
2017-10-13T21:11:43.451Z,11.00
2017-10-13T21:14:10.984Z,11.00
2017-10-13T21:16:38.527Z,10.90
2017-10-13T21:19:06.879Z,11.00
2017-10-13T21:21:34.419Z,10.90
2017-10-13T21:24:01.960Z,10.80
2017-10-13T21:26:29.620Z,10.80
2017-10-13T21:28:57.261Z,10.80
2017-10-13T21:31:24.800Z,10.80
2017-10-13T21:33:52.635Z,10.80
2017-10-13T21:36:20.228Z,10.80
2017-10-13T21:38:48.532Z,10.80
2017-10-13T21:41:16.463Z,10.80
2017-10-13T21:43:43.992Z,10.70
2017-10-13T21:46:11.533Z,10.70
2017-10-13T21:48:39.875Z,10.60
2017-10-13T21:51:07.416Z,10.50
2017-10-13T21:53:34.951Z,10.50
2017-10-13T21:56:02.515Z,10.60
2017-10-13T21:58:30.359Z,10.50
2017-10-13T22:00:57.909Z,10.50
2017-10-13T22:03:25.531Z,10.50
2017-10-13T22:05:53.848Z,10.40
2017-10-13T22:08:21.400Z,10.40
2017-10-13T22:10:48.967Z,10.40
2017-10-13T22:13:16.503Z,10.40
2017-10-13T22:15:44.050Z,10.40
2017-10-13T22:18:11.615Z,10.30
2017-10-13T22:20:39.150Z,10.30
2017-10-13T22:23:06.691Z,10.30
2017-10-13T22:25:34.279Z,10.40
2017-10-13T22:28:03.076Z,10.30
2017-10-13T22:30:30.626Z,10.20
2017-10-13T22:32:58.961Z,10.30
2017-10-13T22:35:26.535Z,10.30
2017-10-13T22:37:54.075Z,10.30
2017-10-13T22:40:21.643Z,10.20
2017-10-13T22:42:49.175Z,10.20
2017-10-13T22:45:16.711Z,10.10
2017-10-13T22:47:44.300Z,10.00
2017-10-13T22:50:11.832Z,10.00
2017-10-13T22:52:40.136Z,10.10
2017-10-13T22:55:07.701Z,10.00
2017-10-13T22:57:35.235Z,10.00
2017-10-13T23:00:02.780Z,10.00
2017-10-13T23:02:30.335Z,10.00
2017-10-13T23:04:58.667Z,10.00
2017-10-13T23:07:26.207Z,10.00
2017-10-13T23:09:53.796Z,10.00
2017-10-13T23:12:21.337Z,10.00
2017-10-13T23:14:48.880Z,9.90
2017-10-13T23:17:16.519Z,9.90
2017-10-13T23:19:44.051Z,9.90
2017-10-13T23:22:11.577Z,9.90
2017-10-13T23:24:39.144Z,9.90
2017-10-13T23:27:06.675Z,9.80
2017-10-13T23:29:34.443Z,9.70
2017-10-13T23:32:02.297Z,9.70
2017-10-13T23:34:30.601Z,9.70
2017-10-13T23:36:58.132Z,9.70
2017-10-13T23:39:30.128Z,9.60
2017-10-13T23:41:57.659Z,9.60
2017-10-13T23:44:25.195Z,9.70
2017-10-13T23:46:52.756Z,9.60
2017-10-13T23:49:20.514Z,9.60
2017-10-13T23:51:48.056Z,9.60
2017-10-13T23:54:16.532Z,9.50
2017-10-13T23:56:44.063Z,9.50
2017-10-13T23:59:11.591Z,9.40
